createdAt,value
2019-01-27T00:00:53.639Z,-3.38
2019-01-27T00:03:22.499Z,-3.38
2019-01-27T00:05:50.275Z,-3.38
2019-01-27T00:08:17.961Z,-3.51
2019-01-27T00:10:45.632Z,-3.67
2019-01-27T00:13:13.378Z,-3.66
2019-01-27T00:15:41.019Z,-3.53
2019-01-27T00:18:08.729Z,-3.50
2019-01-27T00:20:36.448Z,-3.43
2019-01-27T00:23:04.217Z,-3.38
2019-01-27T00:25:31.882Z,-3.42
2019-01-27T00:27:59.578Z,-3.37
2019-01-27T00:30:27.288Z,-3.37
2019-01-27T00:32:54.985Z,-3.32
2019-01-27T00:35:22.737Z,-3.28
2019-01-27T00:37:50.538Z,-3.28
2019-01-27T00:40:18.377Z,-3.31
2019-01-27T00:42:46.070Z,-3.28
2019-01-27T00:45:15.007Z,-3.32
2019-01-27T00:47:43.823Z,-3.36
2019-01-27T00:50:13.127Z,-3.34
2019-01-27T00:52:40.689Z,-3.43
2019-01-27T00:55:12.063Z,-3.43
2019-01-27T00:57:39.729Z,-3.42
2019-01-27T01:00:09.082Z,-3.40
2019-01-27T01:02:36.685Z,-3.34
2019-01-27T01:05:05.233Z,-3.33
2019-01-27T01:07:33.238Z,-3.55
2019-01-27T01:10:01.400Z,-3.44
2019-01-27T01:12:29.171Z,-3.45
2019-01-27T01:14:56.897Z,-3.54
2019-01-27T01:17:24.592Z,-3.52
2019-01-27T01:19:52.448Z,-3.56
2019-01-27T01:22:20.149Z,-3.54
2019-01-27T01:24:48.007Z,-3.61
2019-01-27T01:27:15.854Z,-3.63
2019-01-27T01:29:43.665Z,-3.74
2019-01-27T01:32:11.369Z,-3.69
2019-01-27T01:34:39.020Z,-3.64
2019-01-27T01:37:06.705Z,-3.55
2019-01-27T01:39:34.335Z,-3.56
2019-01-27T01:42:02.048Z,-3.54
2019-01-27T01:44:29.636Z,-3.60
2019-01-27T01:46:57.294Z,-3.62
2019-01-27T01:49:24.861Z,-3.63
2019-01-27T01:51:52.482Z,-3.63
2019-01-27T01:54:20.057Z,-3.71
2019-01-27T01:56:47.770Z,-3.86
2019-01-27T01:59:15.345Z,-3.92
2019-01-27T02:01:43.004Z,-3.90
2019-01-27T02:04:10.594Z,-3.89
2019-01-27T02:06:38.346Z,-3.88
2019-01-27T02:09:10.068Z,-3.79
2019-01-27T02:11:38.562Z,-3.92
2019-01-27T02:14:06.674Z,-3.99
2019-01-27T02:16:34.361Z,-4.02
2019-01-27T02:19:03.101Z,-4.03
2019-01-27T02:21:30.725Z,-4.04
2019-01-27T02:23:58.343Z,-4.14
2019-01-27T02:26:26.011Z,-4.17
2019-01-27T02:28:53.613Z,-4.18
2019-01-27T02:31:21.341Z,-4.25
2019-01-27T02:33:48.950Z,-4.16
2019-01-27T02:36:16.603Z,-4.13
2019-01-27T02:38:44.228Z,-4.11
2019-01-27T02:41:11.985Z,-4.01
2019-01-27T02:43:39.759Z,-4.09
2019-01-27T02:46:08.494Z,-4.09
2019-01-27T02:48:36.176Z,-4.13
2019-01-27T02:51:04.623Z,-4.18
2019-01-27T02:53:32.385Z,-4.17
2019-01-27T02:56:00.060Z,-4.20
2019-01-27T02:58:27.790Z,-4.25
2019-01-27T03:00:55.447Z,-4.11
2019-01-27T03:03:23.168Z,-4.18
2019-01-27T03:06:13.203Z,-4.23
2019-01-27T03:08:48.772Z,-4.21
2019-01-27T03:11:16.620Z,-4.27
2019-01-27T03:13:44.426Z,-4.32
2019-01-27T03:16:12.913Z,-4.29
2019-01-27T03:18:40.702Z,-4.23
2019-01-27T03:21:08.332Z,-4.25
2019-01-27T03:23:37.903Z,-4.18
2019-01-27T03:26:05.810Z,-4.12
2019-01-27T03:28:33.419Z,-4.11
2019-01-27T03:31:02.835Z,-4.17
2019-01-27T03:33:30.645Z,-4.25
2019-01-27T03:35:58.285Z,-4.39
2019-01-27T03:38:25.886Z,-4.34
2019-01-27T03:40:53.539Z,-4.34
2019-01-27T03:43:23.204Z,-4.34
2019-01-27T03:45:51.039Z,-4.30
2019-01-27T03:48:18.642Z,-4.33
2019-01-27T03:50:46.310Z,-4.31
2019-01-27T03:53:13.899Z,-4.36
2019-01-27T03:55:41.566Z,-4.36
2019-01-27T03:58:09.199Z,-4.42
2019-01-27T04:00:36.957Z,-4.40
2019-01-27T04:03:04.595Z,-4.38
2019-01-27T04:05:33.425Z,-4.32
2019-01-27T04:08:01.022Z,-4.35
2019-01-27T04:10:28.742Z,-4.28
2019-01-27T04:12:56.462Z,-4.32
2019-01-27T04:15:24.063Z,-4.35
2019-01-27T04:17:51.747Z,-4.48
2019-01-27T04:20:19.794Z,-4.62
2019-01-27T04:22:47.732Z,-4.59
2019-01-27T04:25:16.448Z,-4.53
2019-01-27T04:27:44.337Z,-4.51
2019-01-27T04:30:31.462Z,-4.49
2019-01-27T04:32:59.156Z,-4.47
2019-01-27T04:35:26.860Z,-4.57
2019-01-27T04:37:54.507Z,-4.55
2019-01-27T04:40:22.253Z,-4.57
2019-01-27T04:42:50.149Z,-4.60
2019-01-27T04:45:23.043Z,-4.61
2019-01-27T04:47:52.361Z,-4.64
2019-01-27T04:50:20.186Z,-4.66
2019-01-27T04:52:47.855Z,-4.67
2019-01-27T04:55:15.708Z,-4.71
2019-01-27T04:57:43.463Z,-4.73
2019-01-27T05:00:14.134Z,-4.75
2019-01-27T05:02:46.688Z,-4.79
2019-01-27T05:05:14.522Z,-4.78
2019-01-27T05:07:42.339Z,-4.73
2019-01-27T05:10:10.267Z,-4.67
2019-01-27T05:12:37.950Z,-4.63
2019-01-27T05:15:08.483Z,-4.73
2019-01-27T05:17:36.071Z,-4.85
2019-01-27T05:20:05.513Z,-4.89
2019-01-27T05:22:33.129Z,-4.95
2019-01-27T05:25:00.818Z,-5.01
2019-01-27T05:27:28.408Z,-4.91
2019-01-27T05:29:56.458Z,-4.89
2019-01-27T05:32:24.049Z,-4.84
2019-01-27T05:34:51.767Z,-4.88
2019-01-27T05:37:19.361Z,-4.74
2019-01-27T05:39:47.137Z,-4.74
2019-01-27T05:42:14.849Z,-4.75
2019-01-27T05:44:42.497Z,-4.91
2019-01-27T05:47:10.058Z,-4.92
2019-01-27T05:49:37.698Z,-4.86
2019-01-27T05:52:05.385Z,-4.86
2019-01-27T05:54:32.969Z,-4.84
2019-01-27T05:57:00.686Z,-5.00
2019-01-27T05:59:28.284Z,-4.97
2019-01-27T06:01:55.912Z,-4.95
2019-01-27T06:04:23.531Z,-4.97
2019-01-27T06:06:51.219Z,-4.92
2019-01-27T06:09:20.465Z,-4.94
2019-01-27T06:11:48.093Z,-4.94
2019-01-27T06:14:15.700Z,-4.99
2019-01-27T06:16:43.415Z,-5.00
2019-01-27T06:19:11.210Z,-5.06
2019-01-27T06:21:39.036Z,-5.06
2019-01-27T06:24:06.634Z,-5.05
2019-01-27T06:26:34.347Z,-5.04
2019-01-27T06:29:01.993Z,-5.02
2019-01-27T06:31:31.584Z,-5.05
2019-01-27T06:34:05.958Z,-5.17
2019-01-27T06:36:33.583Z,-5.22
2019-01-27T06:39:01.809Z,-5.21
2019-01-27T06:41:31.221Z,-5.14
2019-01-27T06:43:58.915Z,-5.09
2019-01-27T06:46:26.714Z,-5.07
2019-01-27T06:48:54.412Z,-5.09
2019-01-27T06:51:22.214Z,-5.25
2019-01-27T06:53:49.985Z,-5.27
2019-01-27T06:56:19.465Z,-5.33
2019-01-27T06:59:05.411Z,-5.18
2019-01-27T07:01:52.862Z,-5.15
2019-01-27T07:04:39.990Z,-5.07
2019-01-27T07:07:25.650Z,-4.98
2019-01-27T07:10:27.677Z,-4.82
2019-01-27T07:13:06.725Z,-4.59
2019-01-27T07:16:08.985Z,-4.23
2019-01-27T07:18:54.529Z,-4.07
2019-01-27T07:21:59.683Z,-3.98
2019-01-27T07:24:50.067Z,-3.65
2019-01-27T07:27:36.732Z,-3.68
2019-01-27T07:30:29.618Z,-3.52
2019-01-27T07:33:09.133Z,-3.18
2019-01-27T07:35:48.933Z,-3.00
2019-01-27T07:38:36.133Z,-2.99
2019-01-27T07:41:23.068Z,-2.94
2019-01-27T07:44:11.369Z,-2.85
2019-01-27T07:47:01.441Z,-2.80
2019-01-27T07:50:00.793Z,-2.86
2019-01-27T07:52:47.606Z,-2.97
2019-01-27T07:55:44.187Z,-2.77
2019-01-27T07:58:49.246Z,-2.60
2019-01-27T08:01:27.501Z,-2.42
2019-01-27T08:04:32.946Z,-2.30
2019-01-27T08:07:25.991Z,-2.26
2019-01-27T08:10:18.945Z,-2.08
2019-01-27T08:12:57.115Z,-2.00
2019-01-27T08:15:50.068Z,-1.76
2019-01-27T08:18:37.383Z,-1.74
2019-01-27T08:21:11.519Z,-2.00
2019-01-27T08:23:56.540Z,-1.73
2019-01-27T08:26:31.839Z,-1.49
2019-01-27T08:29:12.692Z,-1.63
2019-01-27T08:31:59.968Z,-1.62
2019-01-27T08:34:35.580Z,-1.50
2019-01-27T08:37:28.694Z,-1.31
2019-01-27T08:40:07.402Z,-1.24
2019-01-27T08:43:00.714Z,-1.11
2019-01-27T08:46:06.045Z,-1.03
2019-01-27T08:48:33.719Z,-0.94
2019-01-27T08:51:01.442Z,-0.75
2019-01-27T08:53:29.061Z,-0.67
2019-01-27T08:55:56.736Z,-0.55
2019-01-27T08:58:24.617Z,-0.50
2019-01-27T09:01:07.581Z,-0.60
2019-01-27T09:03:57.258Z,-0.57
2019-01-27T09:06:35.467Z,-0.48
2019-01-27T09:09:37.780Z,-0.46
2019-01-27T09:12:21.323Z,-0.44
2019-01-27T09:15:11.479Z,-0.34
2019-01-27T09:18:07.674Z,-0.30
2019-01-27T09:20:54.780Z,0.09
2019-01-27T09:23:56.837Z,0.43
2019-01-27T09:26:33.197Z,0.56
2019-01-27T09:29:13.652Z,0.87
2019-01-27T09:32:00.796Z,1.00
2019-01-27T09:35:07.411Z,1.14
2019-01-27T09:38:13.076Z,1.13
2019-01-27T09:40:59.366Z,0.98
2019-01-27T09:43:44.931Z,0.86
2019-01-27T09:46:35.267Z,0.94
2019-01-27T09:49:25.602Z,0.85
2019-01-27T09:52:03.170Z,0.74
2019-01-27T09:54:49.689Z,1.06
2019-01-27T09:57:40.336Z,1.43
2019-01-27T10:00:44.245Z,1.72
2019-01-27T10:03:35.874Z,1.59
2019-01-27T10:06:12.832Z,1.55
2019-01-27T10:08:59.272Z,1.71
2019-01-27T10:11:38.073Z,1.74
2019-01-27T10:14:29.219Z,2.03
2019-01-27T10:17:22.212Z,1.71
2019-01-27T10:20:08.466Z,2.03
2019-01-27T10:22:58.908Z,2.47
2019-01-27T10:25:46.223Z,2.36
2019-01-27T10:28:32.527Z,2.21
2019-01-27T10:31:18.708Z,1.99
2019-01-27T10:34:02.174Z,1.78
2019-01-27T10:36:40.358Z,1.80
2019-01-27T10:39:27.136Z,1.82
2019-01-27T10:42:19.278Z,1.85
2019-01-27T10:45:16.385Z,1.76
2019-01-27T10:48:09.484Z,1.86
2019-01-27T10:51:05.405Z,1.49
2019-01-27T10:53:58.988Z,1.69
2019-01-27T10:56:34.540Z,1.58
2019-01-27T10:59:13.477Z,1.64
2019-01-27T11:01:52.771Z,1.52
2019-01-27T11:04:37.556Z,1.53
2019-01-27T11:07:22.363Z,1.27
2019-01-27T11:10:12.707Z,1.33
2019-01-27T11:12:58.434Z,1.43
2019-01-27T11:15:42.562Z,1.36
2019-01-27T11:18:33.050Z,1.25
2019-01-27T11:21:26.018Z,1.27
2019-01-27T11:24:01.020Z,1.23
2019-01-27T11:26:54.244Z,1.12
2019-01-27T11:29:35.765Z,1.20
2019-01-27T11:32:23.366Z,1.16
2019-01-27T11:35:10.848Z,1.27
2019-01-27T11:37:57.018Z,1.28
2019-01-27T11:40:34.230Z,1.25
2019-01-27T11:43:25.020Z,1.36
2019-01-27T11:46:10.951Z,1.35
2019-01-27T11:48:46.341Z,1.30
2019-01-27T11:51:37.974Z,1.24
2019-01-27T11:54:05.890Z,1.42
2019-01-27T11:56:33.926Z,1.46
2019-01-27T11:59:02.183Z,1.45
2019-01-27T12:01:30.570Z,1.45
2019-01-27T12:03:58.591Z,1.42
2019-01-27T12:06:26.398Z,1.33
2019-01-27T12:08:54.514Z,1.36
2019-01-27T12:11:22.610Z,1.39
2019-01-27T12:13:53.720Z,1.42
2019-01-27T12:16:21.591Z,1.58
2019-01-27T12:18:49.881Z,1.50
2019-01-27T12:21:17.595Z,1.53
2019-01-27T12:23:45.496Z,1.63
2019-01-27T12:26:13.250Z,1.40
2019-01-27T12:28:41.555Z,1.55
2019-01-27T12:31:09.403Z,1.66
2019-01-27T12:33:37.512Z,1.70
2019-01-27T12:36:05.836Z,1.56
2019-01-27T12:38:33.857Z,1.70
2019-01-27T12:41:01.697Z,1.64
2019-01-27T12:43:29.457Z,1.58
2019-01-27T12:45:57.349Z,1.81
2019-01-27T12:48:25.703Z,1.97
2019-01-27T12:50:53.710Z,2.12
2019-01-27T12:53:21.754Z,2.03
2019-01-27T12:55:49.831Z,2.04
2019-01-27T12:58:18.869Z,2.10
2019-01-27T13:00:50.462Z,2.16
2019-01-27T13:03:18.520Z,2.44
2019-01-27T13:05:47.793Z,2.55
2019-01-27T13:08:15.522Z,2.69
2019-01-27T13:10:43.328Z,2.73
2019-01-27T13:13:12.160Z,2.78
2019-01-27T13:15:40.099Z,2.84
2019-01-27T13:18:08.201Z,2.93
2019-01-27T13:20:36.115Z,3.01
2019-01-27T13:23:04.414Z,2.96
2019-01-27T13:25:32.276Z,2.91
2019-01-27T13:28:00.216Z,3.11
2019-01-27T13:30:28.122Z,3.23
2019-01-27T13:32:55.952Z,3.18
2019-01-27T13:35:23.847Z,3.47
2019-01-27T13:37:52.813Z,3.48
2019-01-27T13:40:21.361Z,3.54
2019-01-27T13:42:49.399Z,3.59
2019-01-27T13:45:20.044Z,3.56
2019-01-27T13:47:48.196Z,3.53
2019-01-27T13:50:16.279Z,3.39
2019-01-27T13:52:44.565Z,3.28
2019-01-27T13:55:18.472Z,3.35
2019-01-27T13:57:46.597Z,3.23
2019-01-27T14:00:19.244Z,3.29
2019-01-27T14:02:47.480Z,3.10
2019-01-27T14:05:15.591Z,3.13
2019-01-27T14:07:44.546Z,3.29
2019-01-27T14:10:15.293Z,3.34
2019-01-27T14:12:43.299Z,3.40
2019-01-27T14:15:14.546Z,3.66
2019-01-27T14:17:42.538Z,3.63
2019-01-27T14:20:12.305Z,3.66
2019-01-27T14:22:40.329Z,3.79
2019-01-27T14:25:09.461Z,3.84
2019-01-27T14:27:37.605Z,3.82
2019-01-27T14:30:07.887Z,3.82
2019-01-27T14:32:36.092Z,3.61
2019-01-27T14:35:05.133Z,3.46
2019-01-27T14:37:33.357Z,3.43
2019-01-27T14:40:01.387Z,3.56
2019-01-27T14:42:29.449Z,3.62
2019-01-27T14:44:57.474Z,3.64
2019-01-27T14:47:25.658Z,3.67
2019-01-27T14:49:53.862Z,3.75
2019-01-27T14:52:21.831Z,3.53
2019-01-27T14:54:49.929Z,3.31
2019-01-27T14:57:17.892Z,3.16
2019-01-27T14:59:45.817Z,3.03
2019-01-27T15:02:13.682Z,2.98
2019-01-27T15:04:41.944Z,3.02
2019-01-27T15:07:09.658Z,2.99
2019-01-27T15:09:37.376Z,2.91
2019-01-27T15:12:05.232Z,2.78
2019-01-27T15:14:33.024Z,2.69
2019-01-27T15:17:00.985Z,2.81
2019-01-27T15:19:28.645Z,2.67
2019-01-27T15:21:56.295Z,2.56
2019-01-27T15:24:23.923Z,2.45
2019-01-27T15:26:51.713Z,2.40
2019-01-27T15:29:19.359Z,2.43
2019-01-27T15:31:47.073Z,2.33
2019-01-27T15:34:14.900Z,2.37
2019-01-27T15:36:45.643Z,2.32
2019-01-27T15:39:13.231Z,2.36
2019-01-27T15:41:40.964Z,2.16
2019-01-27T15:44:08.611Z,2.01
2019-01-27T15:46:36.412Z,2.04
2019-01-27T15:49:04.322Z,2.03
2019-01-27T15:51:32.508Z,1.83
2019-01-27T15:54:00.326Z,1.74
2019-01-27T15:56:28.047Z,1.75
2019-01-27T15:58:56.982Z,1.64
2019-01-27T16:01:24.841Z,1.71
2019-01-27T16:03:52.615Z,1.75
2019-01-27T16:06:20.284Z,1.52
2019-01-27T16:08:48.062Z,1.47
2019-01-27T16:11:15.817Z,1.44
2019-01-27T16:13:45.992Z,1.39
2019-01-27T16:16:13.740Z,1.28
2019-01-27T16:18:41.631Z,1.11
2019-01-27T16:21:09.400Z,1.13
2019-01-27T16:23:44.568Z,1.11
2019-01-27T16:26:14.160Z,0.82
2019-01-27T16:28:41.955Z,0.97
2019-01-27T16:31:34.427Z,0.71
2019-01-27T16:34:10.315Z,0.76
2019-01-27T16:36:38.218Z,0.72
2019-01-27T16:39:09.862Z,0.58
2019-01-27T16:41:37.557Z,0.60
2019-01-27T16:44:05.426Z,0.51
2019-01-27T16:46:33.285Z,0.32
2019-01-27T16:49:00.998Z,0.44
2019-01-27T16:51:28.734Z,0.57
2019-01-27T16:53:56.470Z,0.43
2019-01-27T16:56:24.251Z,0.52
2019-01-27T16:58:51.952Z,0.55
2019-01-27T17:01:19.705Z,0.55
2019-01-27T17:03:47.514Z,0.61
2019-01-27T17:06:15.397Z,0.53
2019-01-27T17:08:43.204Z,0.58
2019-01-27T17:11:10.964Z,0.62
2019-01-27T17:13:39.611Z,0.64
2019-01-27T17:16:07.602Z,0.63
2019-01-27T17:18:36.739Z,0.59
2019-01-27T17:21:04.797Z,0.61
2019-01-27T17:23:32.491Z,0.55
2019-01-27T17:26:00.122Z,0.50
2019-01-27T17:28:27.928Z,0.54
2019-01-27T17:30:56.535Z,0.55
2019-01-27T17:33:24.605Z,0.53
2019-01-27T17:35:52.205Z,0.41
2019-01-27T17:38:19.899Z,0.42
2019-01-27T17:40:47.525Z,0.50
2019-01-27T17:43:15.200Z,0.42
2019-01-27T17:45:42.845Z,0.38
2019-01-27T17:48:10.712Z,0.45
2019-01-27T17:50:38.388Z,0.52
2019-01-27T17:53:11.451Z,0.54
2019-01-27T17:55:40.358Z,0.62
2019-01-27T17:58:27.422Z,0.59
2019-01-27T18:01:29.797Z,0.59
2019-01-27T18:04:06.693Z,0.44
2019-01-27T18:06:44.943Z,0.46
2019-01-27T18:09:19.781Z,0.55
2019-01-27T18:11:51.610Z,0.52
2019-01-27T18:14:47.086Z,0.51
2019-01-27T18:17:16.644Z,0.50
2019-01-27T18:19:53.232Z,0.52
2019-01-27T18:22:25.477Z,0.54
2019-01-27T18:24:59.793Z,0.52
2019-01-27T18:27:28.288Z,0.47
2019-01-27T18:29:55.890Z,0.49
2019-01-27T18:32:31.603Z,0.51
2019-01-27T18:34:59.189Z,0.43
2019-01-27T18:37:26.885Z,0.46
2019-01-27T18:39:54.801Z,0.51
2019-01-27T18:42:22.486Z,0.51
2019-01-27T18:44:50.199Z,0.46
2019-01-27T18:47:17.942Z,0.51
2019-01-27T18:49:45.645Z,0.46
2019-01-27T18:52:13.481Z,0.37
2019-01-27T18:54:49.554Z,0.40
2019-01-27T18:57:39.585Z,0.35
2019-01-27T19:00:17.351Z,0.42
2019-01-27T19:03:16.484Z,0.49
2019-01-27T19:05:56.235Z,0.51
2019-01-27T19:08:44.100Z,0.53
2019-01-27T19:11:31.416Z,0.53
2019-01-27T19:14:36.622Z,0.55
2019-01-27T19:17:21.283Z,0.57
2019-01-27T19:19:58.603Z,0.60
2019-01-27T19:22:45.838Z,0.61
2019-01-27T19:25:36.167Z,0.59
2019-01-27T19:28:26.270Z,0.64
2019-01-27T19:31:03.081Z,0.59
2019-01-27T19:33:39.496Z,0.56
2019-01-27T19:36:44.777Z,0.61
2019-01-27T19:39:26.334Z,0.47
2019-01-27T19:42:04.948Z,0.38
2019-01-27T19:44:44.750Z,0.37
2019-01-27T19:47:30.913Z,0.41
2019-01-27T19:50:19.956Z,0.44
2019-01-27T19:53:03.575Z,0.49
2019-01-27T19:55:42.619Z,0.54
2019-01-27T19:58:18.048Z,0.54
2019-01-27T20:01:23.335Z,0.58
2019-01-27T20:04:14.840Z,0.50
2019-01-27T20:07:00.670Z,0.53
2019-01-27T20:09:44.660Z,0.61
2019-01-27T20:12:30.866Z,0.68
2019-01-27T20:15:14.626Z,0.55
2019-01-27T20:18:06.352Z,0.48
2019-01-27T20:20:56.546Z,0.50
2019-01-27T20:23:43.700Z,0.56
2019-01-27T20:26:51.609Z,0.56
2019-01-27T20:29:35.755Z,0.62
2019-01-27T20:32:28.869Z,0.59
2019-01-27T20:35:36.209Z,0.67
2019-01-27T20:38:35.589Z,0.67
2019-01-27T20:41:41.158Z,0.62
2019-01-27T20:44:16.501Z,0.59
2019-01-27T20:46:52.010Z,0.53
2019-01-27T20:49:37.836Z,0.50
2019-01-27T20:52:23.940Z,0.53
2019-01-27T20:55:26.517Z,0.58
2019-01-27T20:58:23.378Z,0.51
2019-01-27T21:01:13.696Z,0.50
2019-01-27T21:04:32.289Z,0.46
2019-01-27T21:07:50.492Z,0.43
2019-01-27T21:10:37.991Z,0.29
2019-01-27T21:13:23.451Z,0.29
2019-01-27T21:16:06.621Z,0.21
2019-01-27T21:18:39.192Z,0.24
2019-01-27T21:21:06.815Z,0.21
2019-01-27T21:23:34.505Z,0.14
2019-01-27T21:26:05.014Z,0.13
2019-01-27T21:28:32.661Z,0.08
2019-01-27T21:31:00.381Z,0.04
2019-01-27T21:33:28.402Z,0.03
2019-01-27T21:35:56.165Z,0.07
2019-01-27T21:38:23.956Z,0.08
2019-01-27T21:40:51.633Z,0.17
2019-01-27T21:43:20.157Z,0.15
2019-01-27T21:45:47.843Z,0.14
2019-01-27T21:48:15.417Z,0.15
2019-01-27T21:50:43.082Z,0.17
2019-01-27T21:53:10.791Z,0.22
2019-01-27T21:55:38.522Z,0.22
2019-01-27T21:58:06.327Z,0.21
2019-01-27T22:00:34.025Z,0.18
2019-01-27T22:03:01.783Z,0.19
2019-01-27T22:05:29.571Z,0.21
2019-01-27T22:07:57.339Z,0.31
2019-01-27T22:10:25.094Z,0.33
2019-01-27T22:12:52.875Z,0.31
2019-01-27T22:15:20.691Z,0.34
2019-01-27T22:17:48.411Z,0.34
2019-01-27T22:20:16.127Z,0.27
2019-01-27T22:22:43.907Z,0.32
2019-01-27T22:25:12.888Z,0.37
2019-01-27T22:27:41.802Z,0.41
2019-01-27T22:30:15.724Z,0.44
2019-01-27T22:32:43.514Z,0.50
2019-01-27T22:35:11.519Z,0.55
2019-01-27T22:37:39.334Z,0.63
2019-01-27T22:40:08.388Z,0.68
2019-01-27T22:42:37.077Z,0.69
2019-01-27T22:45:08.564Z,0.75
2019-01-27T22:47:36.158Z,0.81
2019-01-27T22:50:05.700Z,0.71
2019-01-27T22:52:33.297Z,0.78
2019-01-27T22:55:00.905Z,0.71
2019-01-27T22:57:28.585Z,0.63
2019-01-27T22:59:56.316Z,0.74
2019-01-27T23:02:26.702Z,0.78
2019-01-27T23:04:54.673Z,0.72
2019-01-27T23:07:22.258Z,0.79
2019-01-27T23:09:51.815Z,0.83
2019-01-27T23:12:19.518Z,0.87
2019-01-27T23:14:50.026Z,0.90
2019-01-27T23:17:17.681Z,0.89
2019-01-27T23:19:45.410Z,0.91
2019-01-27T23:22:13.034Z,0.89
2019-01-27T23:24:40.752Z,0.98
2019-01-27T23:27:08.498Z,1.01
2019-01-27T23:29:36.167Z,1.01
2019-01-27T23:32:03.954Z,1.00
2019-01-27T23:34:31.702Z,0.98
2019-01-27T23:36:59.557Z,0.98
2019-01-27T23:39:27.346Z,1.00
2019-01-27T23:41:55.018Z,0.99
2019-01-27T23:44:22.740Z,1.02
2019-01-27T23:46:50.501Z,1.04
2019-01-27T23:49:18.216Z,1.13
2019-01-27T23:51:45.960Z,1.10
2019-01-27T23:54:13.695Z,1.14
2019-01-27T23:56:41.390Z,1.16
2019-01-27T23:59:09.060Z,1.14
